Ty Lotus — DSNU7 — position and weather

sailwx.info

Track history (hours):
 
Tides and Currents Weather Stations Pressure Air Temp Water Temp Dewpoint Dewpoint Depression Visibility Wind Speed Wind Dir Waves Ship Positions

Ty Lotus

Last reported at 2014-Sep-12 07:12 UTC. Time now 2014-Sep-20 14:05 UTC.
Position N 35°12' E 139°46'.
Warning: this ship's position is 8 days out of date.

Length 82 m; draft 5.7 m.

Type: Cargo ship. MMSI: 440324000.

Date/timePositionNaut miles runAvg speedWind from/ knotsBaromVisibWave heightAir tempDewpointWater temp
2014-Sep-12 07:12N 35°12' E 139°46'5 8.3
2014-Sep-12 06:34N 35°17' E 139°45'9 8.7
2014-Sep-12 05:33N 35°26' E 139°43'2 2.2
2014-Sep-12 04:30N 35°27' E 139°41'0 0.0
2014-Sep-12 03:21N 35°27' E 139°41'0 0.0
2014-Sep-12 02:27N 35°27' E 139°41'0 0.0
2014-Sep-12 01:27N 35°27' E 139°41'0 0.0
2014-Sep-12 00:18N 35°27' E 139°41'0 0.0
2014-Sep-11 23:30N 35°27' E 139°41'0 0.0
2014-Sep-11 22:33N 35°27' E 139°41'0 0.2
2014-Sep-11 21:33N 35°28' E 139°41'0 0.0
2014-Sep-11 19:31N 35°28' E 139°42'0 0.0
2014-Sep-11 18:31N 35°28' E 139°42'0 0.0
2014-Sep-11 17:31N 35°28' E 139°42'0 0.0
2014-Sep-11 16:19N 35°28' E 139°42'0 0.0
2014-Sep-11 15:28N 35°28' E 139°42'0 0.0
2014-Sep-11 14:31N 35°28' E 139°42'0 0.0
2014-Sep-11 13:28N 35°28' E 139°42'0 0.0
2014-Sep-11 12:25N 35°28' E 139°42'0 0.0
2014-Sep-11 11:31N 35°28' E 139°42'0 0.0
2014-Sep-11 10:31N 35°28' E 139°42'0 0.0
2014-Sep-11 09:31N 35°28' E 139°42'0 0.0
2014-Sep-11 08:31N 35°28' E 139°42'0 0.0
2014-Sep-11 07:04N 35°28' E 139°42'0 0.0
2014-Sep-11 06:31N 35°28' E 139°42'0 0.0
2014-Sep-11 05:19N 35°28' E 139°42'0 0.0
2014-Sep-11 04:31N 35°28' E 139°42'0 0.0
2014-Sep-11 03:28N 35°28' E 139°42'0 0.0
2014-Sep-11 02:31N 35°28' E 139°42'0 0.0
2014-Sep-11 01:13N 35°28' E 139°42'0 0.0
2014-Sep-11 00:31N 35°28' E 139°42'0 0.0
2014-Sep-10 23:28N 35°28' E 139°42'0 0.0
2014-Sep-10 21:33N 35°28' E 139°42'2 1.5
2014-Sep-10 20:31N 35°27' E 139°43'0 0.1
2014-Sep-10 19:28N 35°27' E 139°43'0 0.0
2014-Sep-10 18:19N 35°27' E 139°43'0 0.0
2014-Sep-10 17:19N 35°27' E 139°43'0 0.0
2014-Sep-10 16:28N 35°27' E 139°43'0 0.1
2014-Sep-10 15:31N 35°27' E 139°43'0 0.0
2014-Sep-10 14:13N 35°27' E 139°43'0 0.1
2014-Sep-10 13:31N 35°27' E 139°43'0 0.0
2014-Sep-10 12:31N 35°27' E 139°43'6 5.8
2014-Sep-10 11:26N 35°21' E 139°45'8 8.8
2014-Sep-10 10:33N 35°13' E 139°47'1111.1
2014-Sep-10 09:33N 35°03' E 139°41'2310.1
2014-Sep-10 07:15N 34°49' E 139°18'219 8.2
2014-Sep-09 04:30N 34°01' E 134°59'1111.2
2014-Sep-09 03:33N 34°12' E 134°58'1610.9
2014-Sep-09 02:04N 34°26' E 135°08'610.9
2014-Sep-09 01:33N 34°29' E 135°14'4 3.6
2014-Sep-09 00:33N 34°31' E 135°17'0 0.0
2014-Sep-08 22:33N 34°31' E 135°17'0 0.0
2014-Sep-08 21:33N 34°31' E 135°17'0 0.0
2014-Sep-08 20:21N 34°31' E 135°17'0 0.1
2014-Sep-08 19:33N 34°31' E 135°17'0 0.0
2014-Sep-08 18:33N 34°31' E 135°17'0 0.0
2014-Sep-08 17:33N 34°31' E 135°17'0 0.0
2014-Sep-08 16:33N 34°31' E 135°17'0 0.0
2014-Sep-08 15:33N 34°31' E 135°17'0 0.0
2014-Sep-08 14:33N 34°31' E 135°17'0 0.0
2014-Sep-08 11:15N 34°31' E 135°17'0 0.6
2014-Sep-08 10:33N 34°32' E 135°17'9 4.1
2014-Sep-08 08:28N 34°38' E 135°25'0 0.0
2014-Sep-08 06:16N 34°38' E 135°25'0 0.0
2014-Sep-08 04:28N 34°38' E 135°25'0 0.0
2014-Sep-08 03:28N 34°38' E 135°25'0 0.0
2014-Sep-08 02:28N 34°38' E 135°25'0 0.0
2014-Sep-08 01:28N 34°38' E 135°25'0 0.0
2014-Sep-08 00:04N 34°38' E 135°25'0 0.0
2014-Sep-07 23:28N 34°38' E 135°25'0 0.3
2014-Sep-07 21:33N 34°37' E 135°25'2 1.7
2014-Sep-07 20:25N 34°37' E 135°22'0 0.0
2014-Sep-07 19:25N 34°37' E 135°22'0 0.0
2014-Sep-07 18:31N 34°37' E 135°22'0 0.0
2014-Sep-07 17:31N 34°37' E 135°22'0 0.0
2014-Sep-07 16:31N 34°37' E 135°22'0 0.0
2014-Sep-07 15:25N 34°37' E 135°22'5 5.7
2014-Sep-07 14:33N 34°36' E 135°17'1010.2
2014-Sep-07 13:33N 34°35' E 135°04'  
Track history (hours):
 
Tides and Currents Weather Stations Pressure Air Temp Water Temp Dewpoint Dewpoint Depression Visibility Wind Speed Wind Dir Waves Ship Positions

Ty Lotus

Last reported at 2014-Sep-12 07:12 UTC. Time now 2014-Sep-20 14:05 UTC.
Position N 35°12' E 139°46'.
Warning: this ship's position is 8 days out of date.

Length 82 m; draft 5.7 m.

Type: Cargo ship. MMSI: 440324000.

Date/timePositionNaut miles runAvg speedWind from/ knotsBaromVisibWave heightAir tempDewpointWater temp
2014-Sep-12 07:12N 35°12' E 139°46'5 8.3
2014-Sep-12 06:34N 35°17' E 139°45'9 8.7
2014-Sep-12 05:33N 35°26' E 139°43'2 2.2
2014-Sep-12 04:30N 35°27' E 139°41'0 0.0
2014-Sep-12 03:21N 35°27' E 139°41'0 0.0
2014-Sep-12 02:27N 35°27' E 139°41'0 0.0
2014-Sep-12 01:27N 35°27' E 139°41'0 0.0
2014-Sep-12 00:18N 35°27' E 139°41'0 0.0
2014-Sep-11 23:30N 35°27' E 139°41'0 0.0
2014-Sep-11 22:33N 35°27' E 139°41'0 0.2
2014-Sep-11 21:33N 35°28' E 139°41'0 0.0
2014-Sep-11 19:31N 35°28' E 139°42'0 0.0
2014-Sep-11 18:31N 35°28' E 139°42'0 0.0
2014-Sep-11 17:31N 35°28' E 139°42'0 0.0
2014-Sep-11 16:19N 35°28' E 139°42'0 0.0
2014-Sep-11 15:28N 35°28' E 139°42'0 0.0
2014-Sep-11 14:31N 35°28' E 139°42'0 0.0
2014-Sep-11 13:28N 35°28' E 139°42'0 0.0
2014-Sep-11 12:25N 35°28' E 139°42'0 0.0
2014-Sep-11 11:31N 35°28' E 139°42'0 0.0
2014-Sep-11 10:31N 35°28' E 139°42'0 0.0
2014-Sep-11 09:31N 35°28' E 139°42'0 0.0
2014-Sep-11 08:31N 35°28' E 139°42'0 0.0
2014-Sep-11 07:04N 35°28' E 139°42'0 0.0
2014-Sep-11 06:31N 35°28' E 139°42'0 0.0
2014-Sep-11 05:19N 35°28' E 139°42'0 0.0
2014-Sep-11 04:31N 35°28' E 139°42'0 0.0
2014-Sep-11 03:28N 35°28' E 139°42'0 0.0
2014-Sep-11 02:31N 35°28' E 139°42'0 0.0
2014-Sep-11 01:13N 35°28' E 139°42'0 0.0
2014-Sep-11 00:31N 35°28' E 139°42'0 0.0
2014-Sep-10 23:28N 35°28' E 139°42'0 0.0
2014-Sep-10 21:33N 35°28' E 139°42'2 1.5
2014-Sep-10 20:31N 35°27' E 139°43'0 0.1
2014-Sep-10 19:28N 35°27' E 139°43'0 0.0
2014-Sep-10 18:19N 35°27' E 139°43'0 0.0
2014-Sep-10 17:19N 35°27' E 139°43'0 0.0
2014-Sep-10 16:28N 35°27' E 139°43'0 0.1
2014-Sep-10 15:31N 35°27' E 139°43'0 0.0
2014-Sep-10 14:13N 35°27' E 139°43'0 0.1
2014-Sep-10 13:31N 35°27' E 139°43'0 0.0
2014-Sep-10 12:31N 35°27' E 139°43'6 5.8
2014-Sep-10 11:26N 35°21' E 139°45'8 8.8
2014-Sep-10 10:33N 35°13' E 139°47'1111.1
2014-Sep-10 09:33N 35°03' E 139°41'2310.1
2014-Sep-10 07:15N 34°49' E 139°18'219 8.2
2014-Sep-09 04:30N 34°01' E 134°59'1111.2
2014-Sep-09 03:33N 34°12' E 134°58'1610.9
2014-Sep-09 02:04N 34°26' E 135°08'610.9
2014-Sep-09 01:33N 34°29' E 135°14'4 3.6
2014-Sep-09 00:33N 34°31' E 135°17'0 0.0
2014-Sep-08 22:33N 34°31' E 135°17'0 0.0
2014-Sep-08 21:33N 34°31' E 135°17'0 0.0
2014-Sep-08 20:21N 34°31' E 135°17'0 0.1
2014-Sep-08 19:33N 34°31' E 135°17'0 0.0
2014-Sep-08 18:33N 34°31' E 135°17'0 0.0
2014-Sep-08 17:33N 34°31' E 135°17'0 0.0
2014-Sep-08 16:33N 34°31' E 135°17'0 0.0
2014-Sep-08 15:33N 34°31' E 135°17'0 0.0
2014-Sep-08 14:33N 34°31' E 135°17'0 0.0
2014-Sep-08 11:15N 34°31' E 135°17'0 0.6
2014-Sep-08 10:33N 34°32' E 135°17'9 4.1
2014-Sep-08 08:28N 34°38' E 135°25'0 0.0
2014-Sep-08 06:16N 34°38' E 135°25'0 0.0
2014-Sep-08 04:28N 34°38' E 135°25'0 0.0
2014-Sep-08 03:28N 34°38' E 135°25'0 0.0
2014-Sep-08 02:28N 34°38' E 135°25'0 0.0
2014-Sep-08 01:28N 34°38' E 135°25'0 0.0
2014-Sep-08 00:04N 34°38' E 135°25'0 0.0
2014-Sep-07 23:28N 34°38' E 135°25'0 0.3
2014-Sep-07 21:33N 34°37' E 135°25'2 1.7
2014-Sep-07 20:25N 34°37' E 135°22'0 0.0
2014-Sep-07 19:25N 34°37' E 135°22'0 0.0
2014-Sep-07 18:31N 34°37' E 135°22'0 0.0
2014-Sep-07 17:31N 34°37' E 135°22'0 0.0
2014-Sep-07 16:31N 34°37' E 135°22'0 0.0
2014-Sep-07 15:25N 34°37' E 135°22'5 5.7
2014-Sep-07 14:33N 34°36' E 135°17'1010.2
2014-Sep-07 13:33N 34°35' E 135°04'  

Dump ship's entire track history